sensor_id;sensor_type;location;lat;lon;timestamp;pressure;altitude;pressure_sealevel;temperature;humidity
50087;BME280;35967;50.718;7.050;2022-12-18T00:09:34;102054.94;;;-4.36;67.90
50087;BME280;35967;50.718;7.050;2022-12-18T00:19:41;102050.91;;;-4.48;67.70
50087;BME280;35967;50.718;7.050;2022-12-18T00:29:45;102062.81;;;-4.58;68.35
50087;BME280;35967;50.718;7.050;2022-12-18T00:39:48;102058.34;;;-4.49;70.49
50087;BME280;35967;50.718;7.050;2022-12-18T00:49:55;102067.44;;;-4.78;69.17
50087;BME280;35967;50.718;7.050;2022-12-18T00:59:58;102068.00;;;-4.55;68.48
50087;BME280;35967;50.718;7.050;2022-12-18T01:10:03;102057.94;;;-4.55;68.97
50087;BME280;35967;50.718;7.050;2022-12-18T01:20:11;102058.34;;;-4.63;68.03
50087;BME280;35967;50.718;7.050;2022-12-18T01:30:16;102063.09;;;-4.81;68.95
50087;BME280;35967;50.718;7.050;2022-12-18T01:40:19;102057.09;;;-4.96;69.73
50087;BME280;35967;50.718;7.050;2022-12-18T01:50:31;102057.56;;;-4.62;69.64
50087;BME280;35967;50.718;7.050;2022-12-18T02:00:35;102035.38;;;-4.27;71.21
50087;BME280;35967;50.718;7.050;2022-12-18T02:10:46;102036.56;;;-4.22;72.75
50087;BME280;35967;50.718;7.050;2022-12-18T02:21:00;102026.13;;;-4.00;72.70
50087;BME280;35967;50.718;7.050;2022-12-18T02:31:11;102023.59;;;-4.00;73.40
50087;BME280;35967;50.718;7.050;2022-12-18T02:41:18;102044.34;;;-4.04;73.90
50087;BME280;35967;50.718;7.050;2022-12-18T02:51:27;102036.03;;;-3.88;72.85
50087;BME280;35967;50.718;7.050;2022-12-18T03:01:39;102031.56;;;-4.07;73.38
50087;BME280;35967;50.718;7.050;2022-12-18T03:11:52;102027.31;;;-4.08;73.38
50087;BME280;35967;50.718;7.050;2022-12-18T03:22:16;102032.63;;;-4.03;72.77
50087;BME280;35967;50.718;7.050;2022-12-18T03:32:28;102018.97;;;-4.22;72.81
50087;BME280;35967;50.718;7.050;2022-12-18T03:42:40;102009.88;;;-4.33;72.82
50087;BME280;35967;50.718;7.050;2022-12-18T03:52:52;102001.94;;;-4.26;73.14
50087;BME280;35967;50.718;7.050;2022-12-18T04:02:59;101997.88;;;-4.24;72.45
50087;BME280;35967;50.718;7.050;2022-12-18T04:13:11;101996.81;;;-4.28;73.14
50087;BME280;35967;50.718;7.050;2022-12-18T04:23:15;102000.97;;;-4.28;73.96
50087;BME280;35967;50.718;7.050;2022-12-18T04:33:19;102000.38;;;-4.24;73.87
50087;BME280;35967;50.718;7.050;2022-12-18T04:43:23;101996.75;;;-4.43;73.96
50087;BME280;35967;50.718;7.050;2022-12-18T04:53:27;101994.09;;;-4.31;73.89
50087;BME280;35967;50.718;7.050;2022-12-18T05:03:30;101981.25;;;-4.35;73.92
50087;BME280;35967;50.718;7.050;2022-12-18T05:13:36;101976.88;;;-4.53;74.40
50087;BME280;35967;50.718;7.050;2022-12-18T05:23:40;101971.66;;;-4.56;74.96
50087;BME280;35967;50.718;7.050;2022-12-18T05:33:45;101961.94;;;-4.65;75.04
50087;BME280;35967;50.718;7.050;2022-12-18T05:43:48;101970.47;;;-4.48;74.66
50087;BME280;35967;50.718;7.050;2022-12-18T05:53:53;101982.16;;;-4.48;74.91
50087;BME280;35967;50.718;7.050;2022-12-18T06:03:56;102000.72;;;-4.33;74.21
50087;BME280;35967;50.718;7.050;2022-12-18T06:14:01;102024.84;;;-4.21;73.91
50087;BME280;35967;50.718;7.050;2022-12-18T06:24:05;102025.09;;;-4.45;74.96
50087;BME280;35967;50.718;7.050;2022-12-18T06:34:10;102028.94;;;-4.37;75.25
50087;BME280;35967;50.718;7.050;2022-12-18T06:44:13;102015.97;;;-4.30;75.06
50087;BME280;35967;50.718;7.050;2022-12-18T06:54:17;102022.28;;;-4.50;75.49
50087;BME280;35967;50.718;7.050;2022-12-18T07:04:20;102018.31;;;-4.33;74.91
50087;BME280;35967;50.718;7.050;2022-12-18T07:14:24;102012.41;;;-4.33;74.75
50087;BME280;35967;50.718;7.050;2022-12-18T07:24:28;102028.16;;;-4.36;75.54
50087;BME280;35967;50.718;7.050;2022-12-18T07:34:32;102019.53;;;-4.26;74.62
50087;BME280;35967;50.718;7.050;2022-12-18T07:44:36;102009.44;;;-4.54;75.36
50087;BME280;35967;50.718;7.050;2022-12-18T07:54:40;102010.25;;;-4.27;75.05
50087;BME280;35967;50.718;7.050;2022-12-18T08:04:44;101999.47;;;-4.39;76.12
50087;BME280;35967;50.718;7.050;2022-12-18T08:14:48;101974.84;;;-4.17;75.37
50087;BME280;35967;50.718;7.050;2022-12-18T08:24:51;101960.72;;;-4.15;75.75
50087;BME280;35967;50.718;7.050;2022-12-18T08:34:56;101957.72;;;-3.94;75.07
50087;BME280;35967;50.718;7.050;2022-12-18T08:44:59;101964.41;;;-3.94;75.45
50087;BME280;35967;50.718;7.050;2022-12-18T08:55:04;101955.16;;;-3.81;75.10
50087;BME280;35967;50.718;7.050;2022-12-18T09:05:07;101959.38;;;-3.65;74.46
50087;BME280;35967;50.718;7.050;2022-12-18T09:15:12;101957.13;;;-3.60;74.99
50087;BME280;35967;50.718;7.050;2022-12-18T09:26:29;101941.16;;;-3.45;74.34
50087;BME280;35967;50.718;7.050;2022-12-18T09:37:47;101920.63;;;-3.22;73.58
50087;BME280;35967;50.718;7.050;2022-12-18T09:47:54;101912.94;;;-3.08;73.94
50087;BME280;35967;50.718;7.050;2022-12-18T09:58:05;101891.81;;;-2.95;73.45
50087;BME280;35967;50.718;7.050;2022-12-18T10:08:13;101888.16;;;-2.69;73.07
50087;BME280;35967;50.718;7.050;2022-12-18T10:18:24;101871.63;;;-2.64;73.29
50087;BME280;35967;50.718;7.050;2022-12-18T10:28:29;101863.75;;;-2.54;72.94
50087;BME280;35967;50.718;7.050;2022-12-18T10:38:34;101877.41;;;-2.15;71.69
50087;BME280;35967;50.718;7.050;2022-12-18T10:48:40;101857.72;;;-2.23;71.53
50087;BME280;35967;50.718;7.050;2022-12-18T10:58:58;101851.41;;;-2.14;71.66
50087;BME280;35967;50.718;7.050;2022-12-18T11:09:04;101858.59;;;-2.04;71.17
50087;BME280;35967;50.718;7.050;2022-12-18T11:19:36;101836.16;;;-1.81;70.41
50087;BME280;35967;50.718;7.050;2022-12-18T11:29:39;101838.81;;;-1.78;70.24
50087;BME280;35967;50.718;7.050;2022-12-18T11:39:54;101830.53;;;-1.94;70.64
50087;BME280;35967;50.718;7.050;2022-12-18T11:50:02;101822.00;;;-1.96;70.07
50087;BME280;35967;50.718;7.050;2022-12-18T12:00:17;101800.44;;;-2.07;71.05
50087;BME280;35967;50.718;7.050;2022-12-18T12:10:32;101777.09;;;-2.03;71.07
50087;BME280;35967;50.718;7.050;2022-12-18T12:20:47;101783.03;;;-2.02;71.65
50087;BME280;35967;50.718;7.050;2022-12-18T12:31:03;101765.41;;;-2.01;70.83
50087;BME280;35967;50.718;7.050;2022-12-18T12:41:14;101746.41;;;-1.94;71.45
50087;BME280;35967;50.718;7.050;2022-12-18T12:51:34;101753.19;;;-1.93;71.41
50087;BME280;35967;50.718;7.050;2022-12-18T13:01:49;101748.53;;;-1.66;70.69
50087;BME280;35967;50.718;7.050;2022-12-18T13:12:02;101747.91;;;-1.80;71.25
50087;BME280;35967;50.718;7.050;2022-12-18T13:22:35;101754.38;;;-1.67;70.45
50087;BME280;35967;50.718;7.050;2022-12-18T13:32:38;101737.81;;;-1.80;70.23
50087;BME280;35967;50.718;7.050;2022-12-18T13:42:43;101738.53;;;-1.82;70.20
50087;BME280;35967;50.718;7.050;2022-12-18T13:53:05;101726.59;;;-1.67;69.49
50087;BME280;35967;50.718;7.050;2022-12-18T14:03:18;101720.59;;;-1.88;72.24
50087;BME280;35967;50.718;7.050;2022-12-18T14:13:27;101719.38;;;-1.97;71.57
50087;BME280;35967;50.718;7.050;2022-12-18T14:23:34;101723.97;;;-1.88;71.28
50087;BME280;35967;50.718;7.050;2022-12-18T14:33:37;101710.63;;;-1.85;70.72
50087;BME280;35967;50.718;7.050;2022-12-18T14:43:44;101698.78;;;-1.86;70.79
50087;BME280;35967;50.718;7.050;2022-12-18T14:53:48;101683.75;;;-2.03;70.66
50087;BME280;35967;50.718;7.050;2022-12-18T15:03:58;101709.75;;;-2.04;70.35
50087;BME280;35967;50.718;7.050;2022-12-18T15:14:31;101683.47;;;-2.09;70.52
50087;BME280;35967;50.718;7.050;2022-12-18T15:24:35;101687.34;;;-1.98;70.06
50087;BME280;35967;50.718;7.050;2022-12-18T15:34:38;101693.19;;;-1.99;70.61
50087;BME280;35967;50.718;7.050;2022-12-18T15:44:43;101682.94;;;-2.02;71.16
50087;BME280;35967;50.718;7.050;2022-12-18T15:54:46;101687.97;;;-1.84;70.98
50087;BME280;35967;50.718;7.050;2022-12-18T16:05:14;101694.47;;;-1.89;70.92
50087;BME280;35967;50.718;7.050;2022-12-18T16:15:18;101689.38;;;-1.91;71.16
50087;BME280;35967;50.718;7.050;2022-12-18T16:25:27;101681.06;;;-1.88;71.75
50087;BME280;35967;50.718;7.050;2022-12-18T16:35:31;101673.13;;;-1.96;72.51
50087;BME280;35967;50.718;7.050;2022-12-18T16:45:35;101666.66;;;-1.91;72.53
50087;BME280;35967;50.718;7.050;2022-12-18T16:55:38;101663.00;;;-2.15;73.48
50087;BME280;35967;50.718;7.050;2022-12-18T17:05:42;101642.38;;;-2.07;73.58
50087;BME280;35967;50.718;7.050;2022-12-18T17:15:52;101653.81;;;-1.95;73.08
50087;BME280;35967;50.718;7.050;2022-12-18T17:25:58;101662.19;;;-1.96;73.46
50087;BME280;35967;50.718;7.050;2022-12-18T17:36:01;101641.88;;;-2.17;73.79
50087;BME280;35967;50.718;7.050;2022-12-18T17:46:06;101640.44;;;-2.12;73.76
50087;BME280;35967;50.718;7.050;2022-12-18T17:56:12;101631.59;;;-2.22;74.13
50087;BME280;35967;50.718;7.050;2022-12-18T18:06:17;101629.84;;;-2.05;73.85
50087;BME280;35967;50.718;7.050;2022-12-18T18:16:20;101609.66;;;-2.05;74.11
50087;BME280;35967;50.718;7.050;2022-12-18T18:26:25;101614.28;;;-2.14;74.43
50087;BME280;35967;50.718;7.050;2022-12-18T18:36:30;101609.00;;;-2.01;74.09
50087;BME280;35967;50.718;7.050;2022-12-18T18:46:34;101623.59;;;-1.94;74.18
50087;BME280;35967;50.718;7.050;2022-12-18T18:56:37;101633.06;;;-1.70;73.71
50087;BME280;35967;50.718;7.050;2022-12-18T19:07:02;101609.56;;;-1.88;73.90
50087;BME280;35967;50.718;7.050;2022-12-18T19:17:05;101604.66;;;-1.66;73.97
50087;BME280;35967;50.718;7.050;2022-12-18T19:27:09;101602.56;;;-1.55;74.04
50087;BME280;35967;50.718;7.050;2022-12-18T19:37:12;101592.34;;;-1.58;73.67
50087;BME280;35967;50.718;7.050;2022-12-18T19:47:17;101621.59;;;-1.63;74.17
50087;BME280;35967;50.718;7.050;2022-12-18T19:57:21;101620.75;;;-1.43;73.82
50087;BME280;35967;50.718;7.050;2022-12-18T20:07:25;101596.00;;;-1.51;74.56
50087;BME280;35967;50.718;7.050;2022-12-18T20:17:28;101604.28;;;-1.34;74.81
50087;BME280;35967;50.718;7.050;2022-12-18T20:27:33;101600.94;;;-1.33;74.66
50087;BME280;35967;50.718;7.050;2022-12-18T20:37:36;101599.03;;;-1.39;74.80
50087;BME280;35967;50.718;7.050;2022-12-18T20:47:44;101610.34;;;-1.09;74.07
50087;BME280;35967;50.718;7.050;2022-12-18T20:57:48;101602.03;;;-1.07;74.42
50087;BME280;35967;50.718;7.050;2022-12-18T21:07:54;101610.78;;;-0.99;75.17
50087;BME280;35967;50.718;7.050;2022-12-18T21:17:58;101600.25;;;-0.88;76.33
50087;BME280;35967;50.718;7.050;2022-12-18T21:28:02;101594.16;;;-0.72;77.25
50087;BME280;35967;50.718;7.050;2022-12-18T21:38:06;101606.16;;;-0.88;78.09
50087;BME280;35967;50.718;7.050;2022-12-18T21:48:11;101612.53;;;-0.76;80.51
50087;BME280;35967;50.718;7.050;2022-12-18T21:58:14;101601.84;;;-0.69;81.22
50087;BME280;35967;50.718;7.050;2022-12-18T22:08:18;101582.81;;;-0.59;81.92
50087;BME280;35967;50.718;7.050;2022-12-18T22:18:21;101561.22;;;-0.74;82.60
50087;BME280;35967;50.718;7.050;2022-12-18T22:28:25;101550.53;;;-0.67;82.81
50087;BME280;35967;50.718;7.050;2022-12-18T22:38:46;101539.38;;;-0.49;82.91
50087;BME280;35967;50.718;7.050;2022-12-18T22:48:50;101536.75;;;-0.52;82.92
50087;BME280;35967;50.718;7.050;2022-12-18T22:58:54;101520.88;;;-0.48;83.04
50087;BME280;35967;50.718;7.050;2022-12-18T23:09:00;101519.53;;;-0.38;82.45
50087;BME280;35967;50.718;7.050;2022-12-18T23:19:03;101499.44;;;-0.35;81.66
50087;BME280;35967;50.718;7.050;2022-12-18T23:29:08;101475.06;;;-0.33;82.34
50087;BME280;35967;50.718;7.050;2022-12-18T23:39:11;101468.00;;;-0.18;83.04
50087;BME280;35967;50.718;7.050;2022-12-18T23:49:31;101454.13;;;-0.05;84.12
50087;BME280;35967;50.718;7.050;2022-12-18T23:59:34;101432.16;;;-0.06;85.57
